Terminal Aerodrome Forecast
Issued by NWS

Home | Current Version | Previous Version | Text Only | Print | Product List | Glossary On
Versions: 1 2 3 4 5 6 7 8 9 10 11 12 13 14 15 16 17 18 19 20 21 22 23 24 25 26 27 28 29
000
FTUS41 KPBZ 142003 AAA
TAFDUJ
TAF AMD
KDUJ 142003Z 1420/1518 31010G19KT P6SM VCSH BKN035
     FM150200 25003KT P6SM BKN045
     FM150900 23003KT P6SM BKN030
     FM151400 21004KT P6SM OVC035=

USA.gov is the U.S. government's official web portal to all federal, state and local government web resources and services.